createdAt,value
2023-04-14T00:00:45.897Z,0.00
2023-04-14T00:01:45.935Z,0.00
2023-04-14T00:02:45.955Z,0.00
2023-04-14T00:03:46.183Z,0.00
2023-04-14T00:04:45.926Z,0.00
2023-04-14T00:05:45.818Z,0.00
2023-04-14T00:06:45.809Z,0.00
2023-04-14T00:07:45.780Z,0.00
2023-04-14T00:08:45.953Z,0.00
2023-04-14T00:09:45.789Z,0.00
2023-04-14T00:10:45.785Z,0.00
2023-04-14T00:11:45.766Z,0.00
2023-04-14T00:12:45.740Z,0.00
2023-04-14T00:13:45.722Z,0.00
2023-04-14T00:14:45.768Z,0.00
2023-04-14T00:15:45.709Z,0.00
2023-04-14T00:16:45.860Z,0.00
2023-04-14T00:17:45.699Z,0.00
2023-04-14T00:18:45.670Z,0.00
2023-04-14T00:19:45.646Z,0.00
2023-04-14T00:20:45.660Z,0.00
2023-04-14T00:21:45.630Z,0.00
2023-04-14T00:22:45.617Z,0.00
2023-04-14T00:23:45.596Z,0.00
2023-04-14T00:24:45.591Z,0.00
2023-04-14T00:25:45.609Z,0.00
2023-04-14T00:26:45.568Z,0.00
2023-04-14T00:27:45.559Z,0.00
2023-04-14T00:28:45.544Z,0.00
2023-04-14T00:29:45.531Z,0.00
2023-04-14T00:30:45.551Z,0.00
2023-04-14T00:31:45.664Z,0.00
2023-04-14T00:32:45.590Z,0.00
2023-04-14T00:33:45.485Z,0.00
2023-04-14T00:34:45.477Z,0.00
2023-04-14T00:35:45.796Z,0.00
2023-04-14T00:36:45.456Z,0.00
2023-04-14T00:37:45.447Z,0.00
2023-04-14T00:38:45.438Z,0.00
2023-04-14T00:39:45.418Z,0.00
2023-04-14T00:40:45.464Z,0.00
2023-04-14T00:41:45.410Z,0.00
2023-04-14T00:42:45.464Z,0.00
2023-04-14T00:43:45.381Z,0.00
2023-04-14T00:44:45.373Z,0.00
2023-04-14T00:45:45.366Z,0.00
2023-04-14T00:46:45.455Z,0.00
2023-04-14T00:47:45.356Z,0.00
2023-04-14T00:48:45.319Z,0.00
2023-04-14T00:49:45.316Z,0.00
2023-04-14T00:50:45.349Z,0.00
2023-04-14T00:51:45.297Z,0.00
2023-04-14T00:52:45.316Z,0.00
2023-04-14T00:53:45.269Z,0.00
2023-04-14T00:54:45.253Z,0.00
2023-04-14T00:55:45.267Z,0.00
2023-04-14T00:56:45.253Z,0.00
2023-04-14T00:57:45.260Z,0.00
2023-04-14T00:58:45.260Z,0.00
2023-04-14T00:59:45.201Z,0.00
2023-04-14T01:00:45.203Z,0.00
2023-04-14T01:01:45.297Z,0.00
2023-04-14T01:02:45.303Z,0.00
2023-04-14T01:03:45.381Z,0.00
2023-04-14T01:04:53.776Z,0.00
2023-04-14T01:05:46.155Z,0.00
2023-04-14T01:06:45.139Z,0.00
2023-04-14T01:07:45.115Z,0.00
2023-04-14T01:08:45.108Z,0.00
2023-04-14T01:09:45.089Z,0.00
2023-04-14T01:10:45.105Z,0.00
2023-04-14T01:11:45.066Z,0.00
2023-04-14T01:12:45.056Z,0.00
2023-04-14T01:13:45.043Z,0.00
2023-04-14T01:14:45.069Z,0.00
2023-04-14T01:15:45.088Z,0.00
2023-04-14T01:16:45.024Z,0.00
2023-04-14T01:17:45.089Z,0.00
2023-04-14T01:18:44.997Z,0.00
2023-04-14T01:19:44.986Z,0.00
2023-04-14T01:20:45.038Z,0.00
2023-04-14T01:21:44.955Z,0.00
2023-04-14T01:22:44.951Z,0.00
2023-04-14T01:23:44.935Z,0.00
2023-04-14T01:24:44.944Z,0.00
2023-04-14T01:25:44.937Z,0.00
2023-04-14T01:26:44.933Z,0.00
2023-04-14T01:27:44.896Z,0.00
2023-04-14T01:28:44.891Z,0.00
2023-04-14T01:29:44.874Z,0.00
2023-04-14T01:30:44.879Z,0.00
2023-04-14T01:31:44.937Z,0.00
2023-04-14T01:32:44.909Z,0.00
2023-04-14T01:33:44.890Z,0.00
2023-04-14T01:34:44.845Z,0.00
2023-04-14T01:35:44.823Z,0.00
2023-04-14T01:36:44.811Z,0.00
2023-04-14T01:37:44.791Z,0.00
2023-04-14T01:38:44.793Z,0.00
2023-04-14T01:39:44.764Z,0.00
2023-04-14T01:40:44.789Z,0.00
2023-04-14T01:41:44.792Z,0.00
2023-04-14T01:42:44.808Z,0.00
2023-04-14T01:43:44.717Z,0.00
2023-04-14T01:44:44.717Z,0.00
2023-04-14T01:45:44.939Z,0.00
2023-04-14T01:46:44.701Z,0.00
2023-04-14T01:47:44.889Z,0.00
2023-04-14T01:48:44.670Z,0.00
2023-04-14T01:49:44.736Z,0.00
2023-04-14T01:50:44.672Z,0.00
2023-04-14T01:51:44.651Z,0.00
2023-04-14T01:52:44.634Z,0.00
2023-04-14T01:53:44.792Z,0.00
2023-04-14T01:54:44.607Z,0.00
2023-04-14T01:55:44.622Z,0.00
2023-04-14T01:56:44.600Z,0.00
2023-04-14T01:57:44.589Z,0.00
2023-04-14T01:58:44.569Z,0.00
2023-04-14T01:59:44.597Z,0.00
2023-04-14T02:00:44.581Z,0.00
2023-04-14T02:01:44.553Z,0.00
2023-04-14T02:02:44.786Z,0.00
2023-04-14T02:03:44.586Z,0.00
2023-04-14T02:04:44.521Z,0.00
2023-04-14T02:05:44.490Z,0.00
2023-04-14T02:06:44.521Z,0.00
2023-04-14T02:07:44.473Z,0.00
2023-04-14T02:08:44.445Z,0.00
2023-04-14T02:09:44.449Z,0.00
2023-04-14T02:10:44.447Z,0.00
2023-04-14T02:11:44.408Z,0.00
2023-04-14T02:12:44.422Z,0.00
2023-04-14T02:13:44.400Z,0.00
2023-04-14T02:14:44.430Z,0.00
2023-04-14T02:15:44.379Z,0.00
2023-04-14T02:16:44.404Z,0.00
2023-04-14T02:17:44.367Z,0.00
2023-04-14T02:18:44.329Z,0.00
2023-04-14T02:19:44.341Z,0.00
2023-04-14T02:20:44.314Z,0.00
2023-04-14T02:21:44.322Z,0.00
2023-04-14T02:22:44.308Z,0.00
2023-04-14T02:23:44.276Z,0.00
2023-04-14T02:24:44.303Z,0.00
2023-04-14T02:25:44.250Z,0.00
2023-04-14T02:26:44.257Z,0.00
2023-04-14T02:27:44.227Z,0.00
2023-04-14T02:28:44.248Z,0.00
2023-04-14T02:29:44.245Z,0.00
2023-04-14T02:30:44.211Z,0.00
2023-04-14T02:31:44.204Z,0.00
2023-04-14T02:32:44.263Z,0.00
2023-04-14T02:33:44.224Z,0.00
2023-04-14T02:34:44.166Z,0.00
2023-04-14T02:35:44.169Z,0.00
2023-04-14T02:36:44.139Z,0.00
2023-04-14T02:37:44.122Z,0.00
2023-04-14T02:38:44.125Z,0.00
2023-04-14T02:39:44.140Z,0.00
2023-04-14T02:40:44.107Z,0.00
2023-04-14T02:41:44.073Z,0.00
2023-04-14T02:42:44.075Z,0.00
2023-04-14T02:43:44.063Z,0.00
2023-04-14T02:44:44.046Z,0.00
2023-04-14T02:45:44.074Z,0.00
2023-04-14T02:46:44.038Z,0.00
2023-04-14T02:47:44.101Z,0.00
2023-04-14T02:48:44.022Z,0.00
2023-04-14T02:49:44.010Z,0.00
2023-04-14T02:50:44.013Z,0.00
2023-04-14T02:51:43.969Z,0.00
2023-04-14T02:52:43.972Z,0.00
2023-04-14T02:53:43.981Z,0.00
2023-04-14T02:54:43.986Z,0.00
2023-04-14T02:55:43.932Z,0.00
2023-04-14T02:56:43.927Z,0.00
2023-04-14T02:57:43.916Z,0.00
2023-04-14T02:58:43.917Z,0.00
2023-04-14T02:59:43.904Z,0.00
2023-04-14T03:00:43.881Z,0.00
2023-04-14T03:01:44.055Z,0.00
2023-04-14T03:02:44.018Z,0.00
2023-04-14T03:03:43.892Z,0.00
2023-04-14T03:04:43.917Z,0.00
2023-04-14T03:05:43.842Z,0.00
2023-04-14T03:06:43.816Z,0.00
2023-04-14T03:07:43.811Z,0.00
2023-04-14T03:08:43.801Z,0.00
2023-04-14T03:09:43.814Z,0.00
2023-04-14T03:10:43.798Z,0.00
2023-04-14T03:11:43.770Z,0.00
2023-04-14T03:12:43.796Z,0.00
2023-04-14T03:13:43.757Z,0.00
2023-04-14T03:14:43.823Z,0.00
2023-04-14T03:15:43.720Z,0.00
2023-04-14T03:16:43.711Z,0.00
2023-04-14T03:17:43.805Z,0.00
2023-04-14T03:18:43.690Z,0.00
2023-04-14T03:19:43.714Z,0.00
2023-04-14T03:20:43.704Z,0.00
2023-04-14T03:21:43.654Z,0.00
2023-04-14T03:22:43.645Z,0.00
2023-04-14T03:23:43.642Z,0.00
2023-04-14T03:24:43.625Z,0.00
2023-04-14T03:25:43.624Z,0.00
2023-04-14T03:26:43.615Z,0.00
2023-04-14T03:27:43.596Z,0.00
2023-04-14T03:28:43.580Z,0.00
2023-04-14T03:29:43.578Z,0.00
2023-04-14T03:30:43.564Z,0.00
2023-04-14T03:31:43.715Z,0.00
2023-04-14T03:32:43.611Z,0.00
2023-04-14T03:33:43.565Z,0.00
2023-04-14T03:34:43.524Z,0.00
2023-04-14T03:35:43.560Z,0.00
2023-04-14T03:36:43.495Z,0.00
2023-04-14T03:37:43.488Z,0.00
2023-04-14T03:38:43.477Z,0.00
2023-04-14T03:39:43.475Z,0.00
2023-04-14T03:40:43.574Z,0.00
2023-04-14T03:41:43.442Z,0.00
2023-04-14T03:42:43.422Z,0.00
2023-04-14T03:43:43.425Z,0.00
2023-04-14T03:44:43.411Z,0.00
2023-04-14T03:45:43.500Z,0.00
2023-04-14T03:46:43.398Z,0.00
2023-04-14T03:47:43.485Z,0.00
2023-04-14T03:48:43.396Z,0.00
2023-04-14T03:49:43.365Z,0.00
2023-04-14T03:50:43.362Z,0.00
2023-04-14T03:51:43.354Z,0.00
2023-04-14T03:52:43.320Z,0.00
2023-04-14T03:53:43.423Z,0.00
2023-04-14T03:54:43.321Z,0.00
2023-04-14T03:55:43.433Z,0.00
2023-04-14T03:56:43.289Z,0.00
2023-04-14T03:57:43.277Z,0.00
2023-04-14T03:58:43.264Z,0.00
2023-04-14T03:59:43.275Z,0.00
2023-04-14T04:00:43.244Z,0.00
2023-04-14T04:01:43.414Z,0.00
2023-04-14T04:02:43.386Z,0.00
2023-04-14T04:03:43.483Z,0.00
2023-04-14T04:04:43.315Z,0.00
2023-04-14T04:05:43.209Z,0.00
2023-04-14T04:06:43.185Z,0.00
2023-04-14T04:07:43.192Z,0.00
2023-04-14T04:08:43.158Z,4.00
2023-04-14T04:09:43.146Z,4.00
2023-04-14T04:10:43.167Z,4.00
2023-04-14T04:11:43.220Z,4.00
2023-04-14T04:12:43.113Z,4.00
2023-04-14T04:13:43.102Z,8.00
2023-04-14T04:14:43.148Z,4.00
2023-04-14T04:15:43.094Z,8.00
2023-04-14T04:16:43.126Z,8.00
2023-04-14T04:17:43.105Z,8.00
2023-04-14T04:18:43.090Z,16.00
2023-04-14T04:19:43.040Z,16.00
2023-04-14T04:20:43.060Z,20.00
2023-04-14T04:21:43.016Z,20.00
2023-04-14T04:22:43.017Z,24.00
2023-04-14T04:23:42.993Z,32.00
2023-04-14T04:24:42.992Z,36.00
2023-04-14T04:25:42.989Z,40.00
2023-04-14T04:26:42.977Z,52.00
2023-04-14T04:27:42.947Z,60.00
2023-04-14T04:28:42.977Z,68.00
2023-04-14T04:29:42.966Z,80.00
2023-04-14T04:30:42.929Z,88.00
2023-04-14T04:31:43.051Z,104.00
2023-04-14T04:32:42.969Z,116.00
2023-04-14T04:33:42.979Z,136.00
2023-04-14T04:34:42.957Z,152.00
2023-04-14T04:35:42.930Z,172.00
2023-04-14T04:36:42.965Z,196.00
2023-04-14T04:37:42.966Z,224.00
2023-04-14T04:38:43.040Z,248.00
2023-04-14T04:39:42.843Z,276.00
2023-04-14T04:40:42.827Z,308.00
2023-04-14T04:41:42.806Z,340.00
2023-04-14T04:42:42.847Z,376.00
2023-04-14T04:43:42.794Z,416.00
2023-04-14T04:44:42.792Z,456.00
2023-04-14T04:45:42.797Z,500.00
2023-04-14T04:46:42.771Z,544.00
2023-04-14T04:47:42.819Z,588.00
2023-04-14T04:48:42.740Z,640.00
2023-04-14T04:49:42.744Z,688.00
2023-04-14T04:50:42.716Z,740.00
2023-04-14T04:51:42.707Z,792.00
2023-04-14T04:52:42.704Z,844.00
2023-04-14T04:53:42.695Z,896.00
2023-04-14T04:54:42.672Z,952.00
2023-04-14T04:55:42.666Z,1008.00
2023-04-14T04:56:42.653Z,1064.00
2023-04-14T04:57:42.640Z,1120.00
2023-04-14T04:58:42.657Z,1180.00
2023-04-14T04:59:42.617Z,1236.00
2023-04-14T05:00:42.606Z,1300.00
2023-04-14T05:01:42.723Z,1356.00
2023-04-14T05:02:42.728Z,1424.00
2023-04-14T05:03:42.615Z,1488.00
2023-04-14T05:04:42.612Z,1556.00
2023-04-14T05:05:42.556Z,1620.00
2023-04-14T05:06:42.569Z,1688.00
2023-04-14T05:07:42.532Z,1756.00
2023-04-14T05:08:42.545Z,1824.00
2023-04-14T05:09:42.559Z,1892.00
2023-04-14T05:10:42.520Z,1960.00
2023-04-14T05:11:42.557Z,2032.00
2023-04-14T05:12:42.513Z,2100.00
2023-04-14T05:13:42.474Z,2164.00
2023-04-14T05:14:42.475Z,2224.00
2023-04-14T05:15:42.492Z,2288.00
2023-04-14T05:16:42.454Z,2348.00
2023-04-14T05:17:42.454Z,2416.00
2023-04-14T05:18:42.441Z,2476.00
2023-04-14T05:19:42.469Z,2540.00
2023-04-14T05:20:42.404Z,2604.00
2023-04-14T05:21:42.385Z,2660.00
2023-04-14T05:22:42.395Z,2724.00
2023-04-14T05:23:42.437Z,2784.00
2023-04-14T05:24:42.384Z,2844.00
2023-04-14T05:25:42.342Z,2904.00
2023-04-14T05:27:42.319Z,3016.00
2023-04-14T05:28:42.313Z,3076.00
2023-04-14T05:29:42.313Z,3136.00
2023-04-14T05:30:42.288Z,3196.00
2023-04-14T05:31:42.349Z,3256.00
2023-04-14T05:32:42.333Z,3312.00
2023-04-14T05:33:42.288Z,3368.00
2023-04-14T05:34:42.285Z,3432.00
2023-04-14T05:35:42.252Z,3492.00
2023-04-14T05:36:42.248Z,3552.00
2023-04-14T05:37:42.297Z,3612.00
2023-04-14T05:38:42.227Z,3664.00
2023-04-14T05:39:42.216Z,3720.00
2023-04-14T05:40:42.187Z,3776.00
2023-04-14T05:41:42.229Z,3832.00
2023-04-14T05:42:42.174Z,3880.00
2023-04-14T05:43:42.173Z,3940.00
2023-04-14T05:44:42.167Z,3996.00
2023-04-14T05:45:42.123Z,4052.00
2023-04-14T05:46:42.179Z,4104.00
2023-04-14T05:47:42.172Z,4160.00
2023-04-14T05:48:42.102Z,4212.00
2023-04-14T05:49:42.104Z,4264.00
2023-04-14T05:50:42.084Z,4316.00
2023-04-14T05:51:42.070Z,4368.00
2023-04-14T05:52:42.057Z,4420.00
2023-04-14T05:53:42.038Z,4472.00
2023-04-14T05:54:43.317Z,4528.00
2023-04-14T05:55:42.051Z,4584.00
2023-04-14T05:56:42.013Z,4636.00
2023-04-14T05:57:42.007Z,4696.00
2023-04-14T05:58:42.010Z,4760.00
2023-04-14T05:59:41.999Z,4820.00
2023-04-14T06:00:42.000Z,4880.00
2023-04-14T06:01:41.991Z,4944.00
2023-04-14T06:02:42.072Z,5012.00
2023-04-14T06:03:42.267Z,5084.00
2023-04-14T06:04:42.038Z,6232.00
2023-04-14T06:05:41.922Z,9948.00
2023-04-14T06:06:41.887Z,12952.00
2023-04-14T06:07:41.892Z,13180.00
2023-04-14T06:08:41.872Z,13208.00
2023-04-14T06:09:41.947Z,12836.00
2023-04-14T06:10:41.859Z,13368.00
2023-04-14T06:11:41.862Z,14808.00
2023-04-14T06:12:41.822Z,16032.00
2023-04-14T06:13:41.846Z,16832.00
2023-04-14T06:14:41.832Z,17280.00
2023-04-14T06:15:41.797Z,17792.00
2023-04-14T06:16:41.853Z,18464.00
2023-04-14T06:17:41.885Z,18688.00
2023-04-14T06:18:41.771Z,18912.00
2023-04-14T06:19:41.778Z,19200.00
2023-04-14T06:20:41.747Z,19616.00
2023-04-14T06:21:41.756Z,20384.00
2023-04-14T06:22:41.725Z,20864.00
2023-04-14T06:23:41.714Z,21120.00
2023-04-14T06:24:41.758Z,20640.00
2023-04-14T06:25:41.709Z,19040.00
2023-04-14T06:26:41.681Z,20736.00
2023-04-14T06:27:41.677Z,22208.00
2023-04-14T06:28:43.710Z,22752.00
2023-04-14T06:29:41.662Z,23104.00
2023-04-14T06:30:41.642Z,23296.00
2023-04-14T06:31:41.740Z,23616.00
2023-04-14T06:32:41.654Z,23904.00
2023-04-14T06:33:41.648Z,24256.00
2023-04-14T06:34:41.630Z,24832.00
2023-04-14T06:35:41.584Z,25184.00
2023-04-14T06:36:41.577Z,25856.00
2023-04-14T06:37:41.557Z,26624.00
2023-04-14T06:38:41.554Z,27168.00
2023-04-14T06:39:41.550Z,27584.00
2023-04-14T06:40:41.540Z,28192.00
2023-04-14T06:41:41.561Z,28960.00
2023-04-14T06:42:41.495Z,29696.00
2023-04-14T06:43:41.500Z,29952.00
2023-04-14T06:44:41.501Z,30784.00
2023-04-14T06:45:41.502Z,31328.00
2023-04-14T06:46:41.557Z,31200.00
2023-04-14T06:47:41.450Z,30496.00
2023-04-14T06:48:41.440Z,28672.00
2023-04-14T06:49:41.437Z,29984.00
2023-04-14T06:50:42.616Z,33664.00
2023-04-14T06:51:41.476Z,34272.00
2023-04-14T06:52:41.442Z,34912.00
2023-04-14T06:53:41.400Z,35552.00
2023-04-14T06:54:41.385Z,36256.00
2023-04-14T06:55:41.377Z,36480.00
2023-04-14T06:56:41.372Z,36128.00
2023-04-14T06:57:41.379Z,36832.00
2023-04-14T06:58:41.371Z,37568.00
2023-04-14T06:59:41.343Z,38112.00
2023-04-14T07:00:41.360Z,38656.00
2023-04-14T07:01:41.348Z,38912.00
2023-04-14T07:02:41.443Z,39232.00
2023-04-14T07:03:41.277Z,39744.00
2023-04-14T07:04:41.328Z,40064.00
2023-04-14T07:05:41.294Z,40704.00
2023-04-14T07:06:41.249Z,40288.00
2023-04-14T07:07:41.226Z,40544.00
2023-04-14T07:08:41.280Z,41440.00
2023-04-14T07:09:41.216Z,42048.00
2023-04-14T07:10:41.204Z,41888.00
2023-04-14T07:11:41.195Z,42112.00
2023-04-14T07:12:41.195Z,43232.00
2023-04-14T07:13:41.208Z,43680.00
2023-04-14T07:14:41.155Z,43104.00
2023-04-14T07:15:41.189Z,43488.00
2023-04-14T07:16:41.225Z,44160.00
2023-04-14T07:17:41.155Z,43904.00
2023-04-14T07:18:41.122Z,44384.00
2023-04-14T07:19:41.099Z,44832.00
2023-04-14T07:20:41.080Z,45248.00
2023-04-14T07:21:41.141Z,46016.00
2023-04-14T07:22:41.085Z,46432.00
2023-04-14T07:23:41.068Z,46784.00
2023-04-14T07:24:41.137Z,48800.00
2023-04-14T07:25:41.032Z,49472.00
2023-04-14T07:26:41.090Z,48896.00
2023-04-14T07:27:47.291Z,49440.00
2023-04-14T07:28:42.003Z,50624.00
2023-04-14T07:29:40.990Z,50848.00
2023-04-14T07:30:40.959Z,51328.00
2023-04-14T07:31:40.993Z,51488.00
2023-04-14T07:32:40.969Z,52608.00
2023-04-14T07:33:40.954Z,54496.00
2023-04-14T07:34:40.937Z,54528.00
2023-04-14T07:35:51.019Z,54272.00
2023-04-14T07:36:41.959Z,55040.00
2023-04-14T07:37:40.916Z,55904.00
2023-04-14T07:38:40.930Z,57088.00
2023-04-14T07:39:40.876Z,57440.00
2023-04-14T07:40:40.894Z,58080.00
2023-04-14T07:41:40.853Z,59008.00
2023-04-14T07:42:40.838Z,59712.00
2023-04-14T07:43:40.850Z,61152.00
2023-04-14T07:44:40.818Z,60512.00
2023-04-14T07:45:40.838Z,57632.00
2023-04-14T07:46:40.935Z,58272.00
2023-04-14T07:47:40.885Z,59808.00
2023-04-14T07:48:40.789Z,58432.00
2023-04-14T07:49:40.759Z,56992.00
2023-04-14T07:50:40.833Z,58848.00
2023-04-14T07:51:40.743Z,59872.00
2023-04-14T07:52:40.725Z,61312.00
2023-04-14T07:53:40.800Z,62112.00
2023-04-14T07:54:40.703Z,62368.00
2023-04-14T07:55:40.699Z,61120.00
2023-04-14T07:56:40.686Z,61504.00
2023-04-14T07:57:40.685Z,62688.00
2023-04-14T07:58:40.660Z,63040.00
2023-04-14T07:59:40.707Z,61920.00
2023-04-14T08:00:40.631Z,63136.00
2023-04-14T08:01:40.649Z,62688.00
2023-04-14T08:02:40.890Z,61440.00
2023-04-14T08:03:42.748Z,61664.00
2023-04-14T08:04:40.627Z,62816.00
2023-04-14T08:05:40.658Z,64128.00
2023-04-14T08:06:40.565Z,64576.00
2023-04-14T08:07:40.572Z,64032.00
2023-04-14T08:08:40.557Z,65248.00
2023-04-14T08:09:40.557Z,67456.00
2023-04-14T08:10:40.532Z,66688.00
2023-04-14T08:11:40.523Z,67776.00
2023-04-14T08:12:40.511Z,67904.00
2023-04-14T08:13:40.542Z,68192.00
2023-04-14T08:14:40.531Z,68096.00
2023-04-14T08:15:40.474Z,66752.00
2023-04-14T08:16:40.582Z,68896.00
2023-04-14T08:17:40.476Z,68480.00
2023-04-14T08:18:40.477Z,66976.00
2023-04-14T08:19:40.439Z,67520.00
2023-04-14T08:20:40.426Z,69152.00
2023-04-14T08:21:40.401Z,69568.00
2023-04-14T08:22:40.425Z,66272.00
2023-04-14T08:23:40.403Z,64608.00
2023-04-14T08:24:40.498Z,63936.00
2023-04-14T08:25:40.360Z,64448.00
2023-04-14T08:26:40.357Z,64832.00
2023-04-14T08:27:40.339Z,63264.00
2023-04-14T08:28:40.325Z,66304.00
2023-04-14T08:29:40.323Z,64768.00
2023-04-14T08:30:40.368Z,71424.00
2023-04-14T08:31:40.350Z,69920.00
2023-04-14T08:32:40.332Z,73280.00
2023-04-14T08:33:40.280Z,76448.00
2023-04-14T08:34:40.303Z,79456.00
2023-04-14T08:35:42.662Z,84704.00
2023-04-14T08:36:40.238Z,89280.00
2023-04-14T08:37:40.229Z,92640.00
2023-04-14T08:38:40.218Z,94400.00
2023-04-14T08:39:40.289Z,92928.00
2023-04-14T08:40:40.228Z,95200.00
2023-04-14T08:41:40.197Z,92960.00
2023-04-14T08:42:40.187Z,94624.00
2023-04-14T08:43:40.201Z,96224.00
2023-04-14T08:44:40.183Z,100704.00
2023-04-14T08:45:40.170Z,100096.00
2023-04-14T08:46:40.309Z,94368.00
2023-04-14T08:47:40.171Z,93280.00
2023-04-14T08:48:40.150Z,96896.00
2023-04-14T08:49:40.117Z,106656.00
2023-04-14T08:50:40.148Z,108800.00
2023-04-14T08:51:40.149Z,110048.00
2023-04-14T08:52:40.070Z,97280.00
2023-04-14T08:53:40.096Z,99616.00
2023-04-14T08:54:40.054Z,97504.00
2023-04-14T08:55:40.056Z,101600.00
2023-04-14T08:56:40.083Z,109024.00
2023-04-14T08:57:40.017Z,100416.00
2023-04-14T08:58:40.059Z,107232.00
2023-04-14T08:59:40.394Z,100352.00
2023-04-14T09:00:40.523Z,103840.00
2023-04-14T09:01:40.176Z,110048.00
2023-04-14T09:02:40.170Z,105600.00
2023-04-14T09:03:40.235Z,106464.00
2023-04-14T09:04:40.041Z,104544.00
2023-04-14T09:05:39.942Z,108256.00
2023-04-14T09:06:40.042Z,110336.00
2023-04-14T09:07:39.940Z,118528.00
2023-04-14T09:08:39.936Z,111424.00
2023-04-14T09:09:39.916Z,113504.00
2023-04-14T09:10:39.927Z,114048.00
2023-04-14T09:11:39.878Z,112704.00
2023-04-14T09:12:41.865Z,106208.00
2023-04-14T09:13:39.862Z,113024.00
2023-04-14T09:14:39.866Z,105984.00
2023-04-14T09:15:39.822Z,105568.00
2023-04-14T09:16:39.845Z,112256.00
2023-04-14T09:17:39.957Z,101856.00
2023-04-14T09:18:39.877Z,111008.00
2023-04-14T09:20:38.700Z,107360.00
2023-04-14T09:20:41.970Z,108224.00
2023-04-14T09:21:53.368Z,110272.00
2023-04-14T09:22:40.812Z,109920.00
2023-04-14T09:23:39.818Z,105376.00
2023-04-14T09:24:39.908Z,98528.00
2023-04-14T09:25:39.768Z,96032.00
2023-04-14T09:26:39.713Z,97184.00
2023-04-14T09:27:39.695Z,109344.00
2023-04-14T09:28:39.690Z,117792.00
2023-04-14T09:29:39.702Z,116544.00
2023-04-14T09:30:39.732Z,113120.00
2023-04-14T09:31:39.779Z,103808.00
2023-04-14T09:32:39.735Z,105344.00
2023-04-14T09:33:39.718Z,109984.00
2023-04-14T09:34:39.658Z,119424.00
2023-04-14T09:35:39.617Z,113792.00
2023-04-14T09:36:39.626Z,123296.00
2023-04-14T09:37:39.594Z,121920.00
2023-04-14T09:38:39.605Z,131936.00
2023-04-14T09:39:39.617Z,123584.00
2023-04-14T09:40:39.552Z,124192.00
2023-04-14T09:41:39.561Z,115488.00
2023-04-14T09:42:39.612Z,111968.00
2023-04-14T09:43:39.535Z,113664.00
2023-04-14T09:44:39.571Z,118368.00
2023-04-14T09:45:39.726Z,117376.00
2023-04-14T09:46:39.634Z,125600.00
2023-04-14T09:47:39.569Z,124768.00
2023-04-14T09:48:39.563Z,126656.00
2023-04-14T09:49:39.476Z,126144.00
2023-04-14T09:50:39.447Z,124032.00
2023-04-14T09:51:39.575Z,126176.00
2023-04-14T09:52:39.432Z,122240.00
2023-04-14T09:53:39.418Z,124320.00
2023-04-14T09:54:39.418Z,117088.00
2023-04-14T09:55:39.402Z,117728.00
2023-04-14T09:56:39.388Z,127104.00
2023-04-14T09:57:39.376Z,114688.00
2023-04-14T09:58:39.379Z,126144.00
2023-04-14T09:59:39.380Z,128128.00
2023-04-14T10:00:39.358Z,123520.00
2023-04-14T10:01:39.419Z,123328.00
2023-04-14T10:02:39.476Z,120960.00
2023-04-14T10:03:39.398Z,116160.00
2023-04-14T10:04:39.391Z,119776.00
2023-04-14T10:05:39.313Z,121696.00
2023-04-14T10:06:39.280Z,128544.00
2023-04-14T10:07:39.335Z,127136.00
2023-04-14T10:08:39.399Z,123872.00
2023-04-14T10:09:39.302Z,119712.00
2023-04-14T10:10:39.238Z,129536.00
2023-04-14T10:11:39.263Z,123552.00
2023-04-14T10:12:39.220Z,125664.00
2023-04-14T10:13:39.232Z,133856.00
2023-04-14T10:14:39.217Z,128896.00
2023-04-14T10:15:39.197Z,126816.00
2023-04-14T10:16:39.236Z,129696.00
2023-04-14T10:17:39.197Z,110816.00
2023-04-14T10:18:39.185Z,121344.00
2023-04-14T10:19:39.171Z,119776.00
2023-04-14T10:20:39.155Z,92192.00
2023-04-14T10:21:39.136Z,113920.00
2023-04-14T10:22:40.964Z,109952.00
2023-04-14T10:23:39.121Z,112448.00
2023-04-14T10:24:39.135Z,122752.00
2023-04-14T10:25:39.094Z,124960.00
2023-04-14T10:26:39.092Z,134784.00
2023-04-14T10:27:39.084Z,127424.00
2023-04-14T10:28:39.088Z,130976.00
2023-04-14T10:29:39.181Z,124992.00
2023-04-14T10:30:39.100Z,120352.00
2023-04-14T10:31:39.115Z,131776.00
2023-04-14T10:32:39.037Z,117408.00
2023-04-14T10:33:39.025Z,129408.00
2023-04-14T10:34:41.230Z,127584.00
2023-04-14T10:35:38.992Z,125280.00
2023-04-14T10:36:38.976Z,115648.00
2023-04-14T10:37:38.963Z,121952.00
2023-04-14T10:38:39.081Z,118400.00
2023-04-14T10:39:38.943Z,118080.00
2023-04-14T10:40:38.932Z,126912.00
2023-04-14T10:41:38.951Z,129952.00
2023-04-14T10:42:38.922Z,131424.00
2023-04-14T10:43:38.918Z,128416.00
2023-04-14T10:44:38.923Z,134976.00
2023-04-14T10:45:38.886Z,132448.00
2023-04-14T10:46:38.899Z,108000.00
2023-04-14T10:47:38.934Z,138560.00
2023-04-14T10:48:38.871Z,129696.00
2023-04-14T10:49:38.891Z,65056.00
2023-04-14T10:50:38.831Z,126080.00
2023-04-14T10:51:38.832Z,126176.00
2023-04-14T10:52:38.860Z,127072.00
2023-04-14T10:53:38.833Z,129664.00
2023-04-14T10:54:38.872Z,127648.00
2023-04-14T10:55:50.471Z,131136.00
2023-04-14T10:56:40.528Z,125920.00
2023-04-14T10:57:38.848Z,111968.00
2023-04-14T10:58:38.778Z,107168.00
2023-04-14T10:59:38.761Z,126720.00
2023-04-14T11:00:38.837Z,100288.00
2023-04-14T11:01:38.858Z,104160.00
2023-04-14T11:02:38.801Z,119616.00
2023-04-14T11:03:39.123Z,121568.00
2023-04-14T11:04:38.712Z,113696.00
2023-04-14T11:05:38.725Z,113888.00
2023-04-14T11:06:38.700Z,125888.00
2023-04-14T11:07:38.680Z,131104.00
2023-04-14T11:08:38.663Z,23776.00
2023-04-14T11:09:38.713Z,24000.00
2023-04-14T11:10:38.637Z,27072.00
2023-04-14T11:11:38.623Z,154112.00
2023-04-14T11:12:38.614Z,49376.00
2023-04-14T11:13:38.631Z,80800.00
2023-04-14T11:14:38.607Z,31264.00
2023-04-14T11:15:38.587Z,27968.00
2023-04-14T11:16:40.339Z,149152.00
2023-04-14T11:17:39.698Z,139520.00
2023-04-14T11:18:38.595Z,140480.00
2023-04-14T11:19:38.576Z,149504.00
2023-04-14T11:20:38.523Z,141344.00
2023-04-14T11:21:38.538Z,138272.00
2023-04-14T11:22:38.529Z,137536.00
2023-04-14T11:23:38.748Z,135200.00
2023-04-14T11:24:38.489Z,139648.00
2023-04-14T11:25:38.481Z,95360.00
2023-04-14T11:26:38.468Z,129824.00
2023-04-14T11:27:38.519Z,138848.00
2023-04-14T11:28:38.456Z,134976.00
2023-04-14T11:29:38.507Z,135712.00
2023-04-14T11:30:38.453Z,126176.00
2023-04-14T11:31:38.481Z,91648.00
2023-04-14T11:32:38.462Z,126976.00
2023-04-14T11:33:38.390Z,121536.00
2023-04-14T11:34:38.395Z,31488.00
2023-04-14T11:35:38.470Z,33696.00
2023-04-14T11:36:38.361Z,32768.00
2023-04-14T11:37:38.363Z,37280.00
2023-04-14T11:38:38.337Z,143744.00
2023-04-14T11:39:38.374Z,131072.00
2023-04-14T11:40:38.337Z,141408.00
2023-04-14T11:41:38.328Z,143936.00
2023-04-14T11:42:38.320Z,65568.00
2023-04-14T11:43:38.364Z,34688.00
2023-04-14T11:44:38.375Z,32928.00
2023-04-14T11:45:38.393Z,39744.00
2023-04-14T11:46:38.342Z,44608.00
2023-04-14T11:47:38.316Z,49056.00
2023-04-14T11:48:38.284Z,32032.00
2023-04-14T11:49:38.313Z,28704.00
2023-04-14T11:50:38.224Z,26496.00
2023-04-14T11:51:38.245Z,25920.00
2023-04-14T11:52:38.220Z,26816.00
2023-04-14T11:53:38.200Z,31616.00
2023-04-14T11:54:38.340Z,113920.00
2023-04-14T11:55:38.187Z,113376.00
2023-04-14T11:56:38.161Z,43040.00
2023-04-14T11:57:38.164Z,39968.00
2023-04-14T11:58:38.226Z,37312.00
2023-04-14T11:59:38.193Z,37632.00
2023-04-14T12:00:38.115Z,42784.00
2023-04-14T12:01:38.093Z,104576.00
2023-04-14T12:02:38.295Z,102176.00
2023-04-14T12:03:38.235Z,112320.00
2023-04-14T12:04:38.271Z,109024.00
2023-04-14T12:05:38.180Z,104192.00
2023-04-14T12:06:38.048Z,98048.00
2023-04-14T12:07:38.037Z,99296.00
2023-04-14T12:08:38.104Z,95488.00
2023-04-14T12:09:38.024Z,97056.00
2023-04-14T12:10:38.221Z,100544.00
2023-04-14T12:11:38.009Z,99392.00
2023-04-14T12:12:38.006Z,107264.00
2023-04-14T12:13:38.033Z,107456.00
2023-04-14T12:14:37.969Z,109248.00
2023-04-14T12:15:37.989Z,107776.00